Terminal Aerodrome Forecast
Issued by NWS

Home | Current Version | Previous Version | Text Only | Print | Product List | Glossary On
Versions: 1 2 3 4 5 6 7 8 9 10 11 12
000
FTUS42 KTAE 041120
TAFABY
TAF
KABY 041120Z 0412/0512 11009KT P6SM OVC050
     FM041400 13010G15KT P6SM OVC025
     FM042100 15008KT 5SM -RA OVC015
     FM050300 14005KT 4SM -RA BR OVC007
     FM050600 14004KT 1SM -RA BR OVC005=

USA.gov is the U.S. government's official web portal to all federal, state and local government web resources and services.